Time;durP1;ratioP1;P1;durP2;ratioP2;P2;SDS_P1;SDS_P2;PMS_P1;PMS_P2;Temp;Humidity;BMP_temperature;BMP_pressure;BME280_temperature;BME280_humidity;BME280_pressure;Samples;Min_cycle;Max_cycle;Signal;HPM_P1;HPM_P2
2021/05/30 00:00:51;;;;;;;17.73;10.45;;;12.60;83.60;;;11.95;73.99;101672.81;5067747;28;20055;-83
2021/05/30 00:03:27;;;;;;;16.35;11.48;;;12.60;83.60;;;11.91;73.58;101683.19;5067841;28;20113;-83
2021/05/30 00:06:03;;;;;;;18.27;11.30;;;12.50;83.40;;;11.90;73.79;101680.66;5069432;28;20090;-83
2021/05/30 00:08:41;;;;;;;18.45;10.15;;;12.50;83.70;;;11.87;74.24;101680.94;5071797;28;20047;-83
2021/05/30 00:11:17;;;;;;;19.75;11.65;;;12.50;83.80;;;11.89;74.08;101684.38;5071450;28;20049;-83
2021/05/30 00:13:50;;;;;;;17.55;10.48;;;12.40;83.70;;;11.84;73.63;101681.25;5071639;28;20064;-83
2021/05/30 00:16:23;;;;;;;17.20;10.68;;;12.40;83.50;;;11.79;73.92;101680.94;5071491;28;20048;-83
2021/05/30 00:19:02;;;;;;;16.08;10.30;;;12.40;83.60;;;11.77;74.31;101672.91;5071550;28;20048;-83
2021/05/30 00:21:40;;;;;;;15.77;11.00;;;12.40;83.80;;;11.77;73.95;101680.25;5071284;28;20098;-83
2021/05/30 00:24:18;;;;;;;16.90;11.02;;;12.30;83.80;;;11.74;74.04;101676.78;5071355;28;20074;-83
2021/05/30 00:26:54;;;;;;;17.15;11.10;;;12.30;83.90;;;11.74;74.25;101675.94;5071070;28;20055;-83
2021/05/30 00:29:32;;;;;;;16.40;11.02;;;12.30;83.90;;;11.72;73.98;101677.97;5070043;28;20055;-83
2021/05/30 00:32:07;;;;;;;16.65;10.88;;;12.30;83.80;;;11.68;74.23;101676.59;5071401;28;20055;-83
2021/05/30 00:34:44;;;;;;;17.00;10.90;;;12.20;83.80;;;11.65;74.28;101683.25;5071169;28;20550;-83
2021/05/30 00:37:19;;;;;;;16.05;10.50;;;12.20;84.00;;;11.63;74.37;101676.22;5071147;28;20036;-83
2021/05/30 00:39:54;;;;;;;18.67;11.30;;;12.20;84.00;;;11.59;74.46;101675.69;5070915;28;20041;-83
2021/05/30 00:42:32;;;;;;;17.98;11.27;;;12.20;84.10;;;11.59;74.48;101677.56;5071238;28;20049;-83
2021/05/30 00:45:08;;;;;;;18.17;11.90;;;12.20;84.20;;;11.55;74.36;101679.78;5071060;28;20040;-83
2021/05/30 00:47:49;;;;;;;18.35;11.80;;;12.10;84.10;;;11.52;74.39;101680.13;5071010;28;20123;-83
2021/05/30 00:50:22;;;;;;;17.20;11.73;;;12.10;84.20;;;11.48;74.32;101676.84;5070696;28;20052;-83
2021/05/30 00:53:03;;;;;;;17.15;11.98;;;12.10;84.20;;;11.48;74.41;101681.44;5069374;28;20051;-83
2021/05/30 00:55:36;;;;;;;;;;;12.10;84.30;;;11.44;74.49;101674.59;5071341;28;20044;-83
2021/05/30 00:58:11;;;;;;;22.20;11.93;;;12.00;84.20;;;11.40;74.51;101667.75;5070720;28;19931;-83
2021/05/30 01:00:49;;;;;;;19.85;11.43;;;12.00;84.40;;;11.40;74.26;101678.66;5069069;28;20048;-83
2021/05/30 01:03:25;;;;;;;15.70;11.32;;;12.00;84.30;;;11.35;74.40;101676.44;5070652;28;20040;-83
2021/05/30 01:06:04;;;;;;;18.27;11.82;;;11.90;84.20;;;11.33;74.31;101681.19;5070719;28;20043;-83
2021/05/30 01:08:40;;;;;;;16.88;11.68;;;11.90;84.30;;;11.31;73.97;101684.09;5069042;28;20052;-83
2021/05/30 01:11:24;;;;;;;18.48;11.50;;;11.90;84.10;;;11.31;73.79;101678.63;5070355;28;20049;-83
2021/05/30 01:14:04;;;;;;;16.67;11.35;;;11.80;84.00;;;11.26;74.26;101678.25;5070467;28;20409;-83
2021/05/30 01:16:37;;;;;;;18.17;11.70;;;11.80;84.20;;;11.24;74.16;101680.28;5070216;28;20041;-83
2021/05/30 01:19:10;;;;;;;18.92;12.18;;;11.80;84.30;;;11.23;74.29;101672.25;5069932;28;20059;-83
2021/05/30 01:21:48;;;;;;;19.13;12.02;;;11.80;84.30;;;11.18;74.43;101675.47;5070183;28;20055;-83
2021/05/30 01:24:32;;;;;;;20.98;12.80;;;11.70;84.40;;;11.18;74.45;101671.91;5068719;28;20056;-83
2021/05/30 01:27:08;;;;;;;17.88;11.30;;;11.70;84.50;;;11.17;74.61;101673.75;5070360;28;20090;-83
2021/05/30 01:29:40;;;;;;;20.30;12.50;;;11.70;84.60;;;11.17;74.80;101678.34;5069893;28;20040;-83
2021/05/30 01:32:18;;;;;;;17.85;11.55;;;11.70;84.80;;;11.16;74.70;101672.06;5070303;28;20048;-83
2021/05/30 01:34:56;;;;;;;18.77;12.55;;;11.70;84.70;;;11.11;74.55;101669.78;5069886;28;20796;-83
2021/05/30 01:37:34;;;;;;;19.45;12.23;;;11.70;84.70;;;11.10;74.35;101659.06;5070171;28;20485;-83
2021/05/30 01:40:11;;;;;;;19.77;12.80;;;11.60;84.40;;;11.10;74.68;101669.94;5069745;28;20044;-83
2021/05/30 01:42:46;;;;;;;20.63;13.02;;;11.60;84.70;;;11.06;74.33;101671.28;5070022;28;20044;-83
2021/05/30 01:45:22;;;;;;;19.67;12.55;;;11.60;84.50;;;11.03;74.54;101672.47;5069940;28;20045;-83
2021/05/30 01:47:57;;;;;;;17.35;12.07;;;11.60;84.70;;;11.01;74.51;101673.66;5069815;28;20123;-83
2021/05/30 01:50:35;;;;;;;18.08;12.23;;;11.60;84.70;;;10.95;74.43;101676.00;5069505;28;20045;-83
2021/05/30 01:53:11;;;;;;;19.95;12.82;;;11.50;84.60;;;10.94;74.12;101677.00;5069773;28;20048;-83
2021/05/30 01:55:52;;;;;;;18.92;12.27;;;11.50;84.50;;;10.93;74.33;101679.91;5069352;28;20048;-83
2021/05/30 01:58:28;;;;;;;18.92;11.52;;;11.50;84.60;;;10.92;74.46;101680.91;5069479;28;20076;-83
2021/05/30 02:01:06;;;;;;;19.60;12.13;;;11.50;84.70;;;10.90;74.42;101678.31;5069044;28;20521;-83
2021/05/30 02:03:45;;;;;;;18.98;12.23;;;11.50;84.80;;;10.89;74.57;101679.34;5069608;28;20045;-83
2021/05/30 02:06:25;;;;;;;20.58;12.18;;;11.40;84.70;;;10.87;74.52;101670.50;5069469;28;20048;-83
2021/05/30 02:09:02;;;;;;;18.00;11.57;;;11.40;84.80;;;10.86;74.29;101678.81;5049527;28;20496;-83
2021/05/30 02:11:42;;;;;;;19.58;12.48;;;11.40;84.70;;;10.85;74.10;101677.09;5049197;28;20291;-83
2021/05/30 02:14:20;;;;;;;18.80;12.40;;;11.40;84.70;;;10.79;74.47;101678.56;5049349;28;20091;-83
2021/05/30 02:16:58;;;;;;;20.75;12.43;;;11.40;84.80;;;10.77;74.49;101677.88;5049362;28;20868;-83
2021/05/30 02:19:33;;;;;;;19.67;12.55;;;11.30;84.80;;;10.76;74.46;101676.19;5060280;28;20469;-83
2021/05/30 02:22:12;;;;;;;19.77;12.43;;;11.30;84.80;;;10.74;74.29;101676.34;5069236;28;20059;-83
2021/05/30 02:24:43;;;;;;;18.67;12.20;;;11.30;84.80;;;10.71;74.18;101667.63;5069121;28;20041;-83
2021/05/30 02:27:22;;;;;;;20.70;12.85;;;11.30;84.70;;;10.68;74.30;101668.81;5069236;28;20044;-83
2021/05/30 02:29:57;;;;;;;18.08;12.07;;;11.20;84.70;;;10.69;74.35;101672.38;5068652;28;20045;-83
2021/05/30 02:32:35;;;;;;;23.10;12.48;;;11.20;84.80;;;10.66;74.46;101675.41;5069050;28;20408;-83
2021/05/30 02:35:09;;;;;;;19.02;12.18;;;11.20;84.80;;;10.62;74.21;101674.00;5068982;28;20045;-83
2021/05/30 02:37:47;;;;;;;17.67;12.27;;;11.10;84.70;;;10.60;74.40;101673.31;5069072;28;20454;-83
2021/05/30 02:40:25;;;;;;;19.60;12.55;;;11.10;84.80;;;10.58;74.06;101665.28;5067205;28;20083;-83
2021/05/30 02:43:01;;;;;;;18.58;12.18;;;11.10;84.60;;;10.56;73.97;101676.31;5068864;28;20047;-83
2021/05/30 02:45:34;;;;;;;16.70;11.85;;;11.00;84.50;;;10.50;74.07;101678.84;5068887;28;20060;-83
2021/05/30 02:48:12;;;;;;;20.15;12.35;;;11.00;84.80;;;10.47;74.26;101682.72;5068822;28;20041;-83
2021/05/30 02:50:58;;;;;;;18.58;12.40;;;11.00;84.70;;;10.47;74.21;101681.84;5068237;28;20052;-83
2021/05/30 02:53:35;;;;;;;19.48;11.65;;;11.00;84.70;;;10.45;74.07;101681.16;5068443;28;20052;-83
2021/05/30 02:56:13;;;;;;;18.63;11.73;;;11.00;84.60;;;10.43;74.20;101678.59;5068557;28;20040;-83
2021/05/30 02:58:52;;;;;;;18.58;12.00;;;11.00;84.60;;;10.41;73.54;101679.75;5068583;28;20504;-83
2021/05/30 03:01:28;;;;;;;18.25;12.02;;;10.90;84.60;;;10.37;74.06;101682.78;5068325;28;20062;-83
2021/05/30 03:04:06;;;;;;;18.33;11.50;;;10.90;84.70;;;10.35;73.92;101681.22;5068492;28;20049;-83
2021/05/30 03:06:44;;;;;;;18.35;11.85;;;10.90;84.60;;;10.34;74.00;101683.09;5068698;28;20044;-83
2021/05/30 03:09:19;;;;;;;17.02;11.75;;;10.90;84.60;;;10.32;73.93;101676.13;5068405;28;20048;-83
2021/05/30 03:11:51;;;;;;;21.15;12.25;;;10.80;84.50;;;10.29;74.20;101671.78;5068297;28;20080;-83
2021/05/30 03:14:24;;;;;;;19.90;12.25;;;10.80;84.70;;;10.28;74.32;101677.38;5068282;28;20049;-83
2021/05/30 03:17:02;;;;;;;18.80;12.65;;;10.80;84.90;;;10.25;74.26;101683.16;5068379;28;20044;-83
2021/05/30 03:19:38;;;;;;;17.55;12.20;;;10.80;84.80;;;10.26;74.31;101680.28;5066600;28;20098;-83
2021/05/30 03:22:16;;;;;;;16.92;11.73;;;10.80;84.90;;;10.23;74.37;101685.16;5068327;28;20544;-83
2021/05/30 03:24:54;;;;;;;15.82;11.35;;;10.80;84.80;;;10.22;74.22;101683.44;5068151;28;20047;-83
2021/05/30 03:27:29;;;;;;;18.42;12.13;;;10.80;84.80;;;10.16;74.25;101679.47;5068174;28;20102;-83
2021/05/30 03:30:03;;;;;;;17.92;11.68;;;10.70;84.80;;;10.13;74.16;101683.38;5068006;28;20084;-83
2021/05/30 03:32:39;;;;;;;19.15;12.52;;;10.70;84.80;;;10.15;74.22;101684.06;5068176;28;20493;-83
2021/05/30 03:35:17;;;;;;;20.15;11.82;;;10.70;85.00;;;10.13;74.28;101682.50;5066576;28;20482;-83
2021/05/30 03:37:53;;;;;;;16.70;11.73;;;10.70;85.00;;;10.08;74.12;101682.97;5068102;28;20041;-83
2021/05/30 03:40:30;;;;;;;18.10;11.75;;;10.70;84.80;;;10.08;74.23;101682.09;5068736;28;20137;-83
2021/05/30 03:43:11;;;;;;;18.98;11.35;;;10.70;84.50;;;10.08;74.47;101693.00;5072423;28;20048;-83
2021/05/30 03:45:51;;;;;;;19.85;12.23;;;10.60;85.00;;;10.05;74.44;101683.28;5072526;28;20047;-83
2021/05/30 03:48:26;;;;;;;17.38;11.48;;;10.60;85.00;;;10.02;74.57;101696.31;5070836;28;20048;-83
2021/05/30 03:51:05;;;;;;;17.40;11.07;;;10.60;85.00;;;9.99;74.87;101683.88;5072067;28;20598;-83
2021/05/30 03:53:39;;;;;;;18.98;11.23;;;10.60;85.10;;;9.99;74.72;101692.03;5086801;22;20064;-78
2021/05/30 03:56:17;;;;;;;15.63;10.82;;;10.60;85.10;;;9.98;74.99;101696.63;5071696;28;20090;-78
2021/05/30 03:58:53;;;;;;;15.88;10.90;;;10.60;85.30;;;10.03;75.10;101695.31;5087390;28;20056;-78
2021/05/30 04:01:33;;;;;;;16.80;11.00;;;10.60;85.40;;;10.04;74.86;101695.16;5071516;28;20101;-78
2021/05/30 04:04:08;;;;;;;15.88;10.73;;;10.60;85.50;;;10.05;75.01;101683.28;5077932;28;20053;-78
2021/05/30 04:06:43;;;;;;;17.98;11.30;;;10.60;85.60;;;10.07;75.10;101694.84;5051821;28;20041;-78
2021/05/30 04:09:21;;;;;;;16.95;11.35;;;10.60;85.70;;;10.08;75.39;101699.28;5051910;28;20059;-78
2021/05/30 04:11:56;;;;;;;18.48;11.88;;;10.60;85.80;;;10.08;75.62;101693.84;5051127;28;20049;-78
2021/05/30 04:14:32;;;;;;;17.55;11.55;;;10.70;86.00;;;10.10;75.79;101691.81;5051579;28;20543;-78
2021/05/30 04:17:11;;;;;;;17.58;11.75;;;10.70;86.20;;;10.11;75.66;101677.22;5051796;28;20090;-78
2021/05/30 04:19:47;;;;;;;16.42;11.55;;;10.70;86.20;;;10.14;75.96;101690.50;5051241;28;20507;-79
2021/05/30 04:22:25;;;;;;;18.42;11.98;;;10.70;86.50;;;10.15;76.23;101684.06;5051551;28;20044;-78
2021/05/30 04:25:00;;;;;;;19.20;11.70;;;10.80;86.70;;;10.23;76.68;101685.16;5051486;28;20052;-78
2021/05/30 04:27:36;;;;;;;17.42;11.73;;;10.80;87.00;;;10.24;76.92;101686.88;5049874;28;20834;-78
2021/05/30 04:30:16;;;;;;;17.85;12.00;;;10.90;87.10;;;10.27;77.01;101692.00;5051192;28;20127;-78
2021/05/30 04:32:56;;;;;;;17.77;11.80;;;10.90;87.30;;;10.28;77.08;101688.25;5049772;28;20049;-79
2021/05/30 04:35:34;;;;;;;18.65;12.18;;;10.90;87.30;;;10.34;77.56;101690.44;5051293;28;20052;-79
2021/05/30 04:38:09;;;;;;;17.38;12.18;;;11.00;87.50;;;10.36;78.02;101696.56;5049264;28;20048;-80
2021/05/30 04:40:42;;;;;;;19.23;12.85;;;11.00;87.60;;;10.40;78.35;101697.97;5050934;28;20041;-77
2021/05/30 04:43:20;;;;;;;19.25;13.30;;;11.10;87.70;;;10.44;78.49;101693.06;5051082;28;20045;-78
2021/05/30 04:45:55;;;;;;;18.02;12.63;;;11.10;87.90;;;10.54;78.51;101694.69;5051053;28;20052;-79
2021/05/30 04:48:31;;;;;;;20.95;13.63;;;11.20;87.90;;;10.67;78.22;101694.31;5051080;28;20659;-79
2021/05/30 04:51:13;;;;;;;20.60;14.18;;;11.30;88.10;;;10.79;78.00;101691.34;5050679;28;20095;-78
2021/05/30 04:53:55;;;;;;;23.92;16.02;;;11.40;87.90;;;10.89;78.03;101701.16;5049704;28;20114;-78
2021/05/30 04:56:34;;;;;;;23.65;16.27;;;11.50;88.10;;;11.03;78.07;101698.88;5049347;28;20868;-78
2021/05/30 04:59:12;;;;;;;27.00;17.08;;;11.60;88.30;;;11.09;77.88;101696.34;5050975;28;20088;-78
2021/05/30 05:01:41;;;;;;;25.42;17.23;;;11.70;88.00;;;11.19;77.44;101696.25;5050628;28;20067;-78
2021/05/30 05:04:20;;;;;;;25.63;16.05;;;11.80;87.70;;;11.28;77.33;101697.16;5050522;28;20049;-78
2021/05/30 05:07:00;;;;;;;23.55;15.73;;;11.80;87.60;;;11.38;77.86;101697.06;5050749;28;20051;-78
2021/05/30 05:09:35;;;;;;;26.52;16.77;;;11.90;87.70;;;11.42;77.68;101699.28;5050385;28;20045;-78
2021/05/30 05:12:12;;;;;;;26.02;17.33;;;12.00;87.70;;;11.46;77.62;101697.97;5050571;28;20080;-78
2021/05/30 05:14:50;;;;;;;29.25;16.27;;;12.10;87.70;;;11.51;77.34;101695.59;5050285;28;20051;-78
2021/05/30 05:17:25;;;;;;;26.55;17.17;;;12.10;87.80;;;11.55;77.46;101698.84;5050420;28;20052;-78
2021/05/30 05:20:04;;;;;;;25.38;16.63;;;12.20;87.60;;;11.59;77.86;101697.50;5048641;28;20057;-78
2021/05/30 05:22:42;;;;;;;25.73;17.30;;;12.30;87.70;;;11.64;77.32;101703.34;5050453;28;20106;-78
2021/05/30 05:25:27;;;;;;;27.83;17.65;;;12.30;87.40;;;11.66;77.66;101695.00;5050467;28;20048;-78
2021/05/30 05:28:06;;;;;;;28.67;19.13;;;12.40;87.60;;;11.73;77.03;101696.06;5050409;28;20049;-78
2021/05/30 05:30:41;;;;;;;29.17;18.10;;;12.50;87.20;;;11.77;76.96;101702.91;5049999;28;20110;-77
2021/05/30 05:33:19;;;;;;;30.33;19.13;;;12.50;87.20;;;11.82;77.35;101706.00;5050133;28;20052;-77
2021/05/30 05:36:03;;;;;;;28.30;19.15;;;12.50;87.00;;;11.84;77.03;101709.41;5050066;28;20045;-77
2021/05/30 05:38:41;;;;;;;31.60;19.92;;;12.60;86.80;;;11.90;77.05;101702.50;5050089;28;20555;-78
2021/05/30 05:41:19;;;;;;;33.78;19.55;;;12.70;86.90;;;11.99;77.35;101706.94;5049764;28;20505;-78
2021/05/30 05:43:57;;;;;;;30.52;20.02;;;12.70;86.90;;;12.13;77.08;101713.66;5049805;28;20049;-78
2021/05/30 05:46:32;;;;;;;26.70;19.38;;;13.00;86.30;;;12.30;76.54;101704.50;5049842;28;20045;-78
2021/05/30 05:49:10;;;;;;;28.00;18.77;;;14.40;83.30;;;12.50;76.49;101699.56;5049874;28;20045;-78
2021/05/30 05:51:44;;;;;;;31.27;18.83;;;15.70;78.70;;;12.72;75.85;101705.41;5049584;28;20056;-79
2021/05/30 05:54:22;;;;;;;31.65;18.80;;;16.60;74.80;;;12.96;74.81;101709.16;5049544;28;20491;-79
2021/05/30 05:56:57;;;;;;;28.25;18.65;;;17.30;72.00;;;13.14;74.01;101707.13;5049582;28;20539;-79
2021/05/30 05:59:35;;;;;;;29.42;17.50;;;17.70;70.00;;;13.32;72.67;101703.38;5049652;28;20049;-79
2021/05/30 06:02:12;;;;;;;27.63;17.80;;;17.80;68.70;;;13.51;72.50;101713.91;5049803;28;20049;-80
2021/05/30 06:04:56;;;;;;;27.88;17.23;;;17.80;68.30;;;13.75;71.75;101715.75;5048849;28;20393;-76
2021/05/30 06:07:42;;;;;;;26.27;16.67;;;17.80;68.40;;;13.96;71.46;101712.41;5048477;28;20057;-80
2021/05/30 06:10:21;;;;;;;25.23;16.23;;;17.60;68.40;;;14.12;70.96;101713.38;5049285;28;20044;-80
2021/05/30 06:13:01;;;;;;;23.05;16.08;;;17.50;68.90;;;14.24;70.90;101714.66;5049449;28;20044;-79
2021/05/30 06:15:34;;;;;;;24.70;16.42;;;17.40;68.70;;;14.37;69.92;101714.09;5049403;28;20496;-79
2021/05/30 06:18:10;;;;;;;22.70;15.57;;;17.40;68.80;;;14.44;69.12;101707.69;5049345;28;20664;-79
2021/05/30 06:20:46;;;;;;;22.02;15.90;;;17.50;68.50;;;14.54;69.93;101709.34;5048938;28;20044;-79
2021/05/30 06:23:26;;;;;;;22.35;15.48;;;17.70;69.20;;;14.65;69.22;101711.72;5048879;28;20722;-79
2021/05/30 06:26:09;;;;;;;25.65;14.73;;;18.00;67.20;;;14.71;68.02;101705.50;5048919;28;20045;-79
2021/05/30 06:28:47;;;;;;;22.67;15.05;;;18.20;65.10;;;14.74;68.33;101715.25;5049010;28;20128;-79
2021/05/30 06:31:25;;;;;;;22.80;14.35;;;18.10;65.70;;;14.75;68.43;101715.06;5048463;28;20555;-79
2021/05/30 06:34:04;;;;;;;20.65;14.15;;;17.70;67.40;;;14.75;69.44;101706.81;5048804;28;20520;-79
2021/05/30 06:36:39;;;;;;;24.45;14.15;;;17.40;69.10;;;14.75;68.85;101712.31;5048914;28;20064;-79
2021/05/30 06:39:18;;;;;;;21.35;15.38;;;17.30;69.60;;;14.75;69.80;101717.78;5048909;28;20045;-79
2021/05/30 06:41:54;;;;;;;21.30;13.40;;;17.10;71.00;;;14.72;68.68;101712.69;5048756;28;20095;-79
2021/05/30 06:44:32;;;;;;;22.10;13.95;;;17.00;70.50;;;14.73;68.55;101714.38;5048726;28;20437;-79
2021/05/30 06:47:07;;;;;;;23.25;13.05;;;16.90;71.10;;;14.72;67.99;101715.44;5048739;28;20041;-79
2021/05/30 06:49:43;;;;;;;17.95;12.25;;;16.70;71.00;;;14.73;68.62;101722.59;5048424;28;20064;-79
2021/05/30 06:52:26;;;;;;;21.55;13.68;;;16.70;72.20;;;14.72;69.17;101720.06;5048481;28;20049;-83
2021/05/30 06:55:04;;;;;;;20.40;13.68;;;16.70;72.60;;;14.74;70.42;101721.59;5048405;28;20056;-79
2021/05/30 06:57:39;;;;;;;23.52;13.40;;;16.70;73.60;;;14.77;70.55;101723.09;5046825;28;20429;-82
2021/05/30 07:00:16;;;;;;;21.17;13.52;;;16.70;73.70;;;14.78;69.89;101722.06;5047989;28;20064;-79
2021/05/30 07:02:52;;;;;;;23.30;14.23;;;16.70;73.40;;;14.77;69.54;101725.84;5048463;28;20106;-78
2021/05/30 07:05:27;;;;;;;23.15;13.85;;;16.70;73.80;;;14.77;70.00;101731.31;5048363;28;20049;-79
2021/05/30 07:08:05;;;;;;;19.52;13.35;;;16.70;72.70;;;14.80;70.07;101728.22;5048210;28;20550;-78
2021/05/30 07:10:45;;;;;;;21.20;12.77;;;16.70;73.80;;;14.79;68.83;101729.25;5046537;28;20057;-79
2021/05/30 07:13:22;;;;;;;22.20;13.10;;;16.70;72.80;;;14.83;70.01;101717.75;5048135;28;20093;-78
2021/05/30 07:16:03;;;;;;;18.17;12.20;;;16.80;73.80;;;14.84;69.66;101715.84;5047563;28;20045;-79
2021/05/30 07:18:40;;;;;;;18.40;11.63;;;16.80;73.40;;;14.86;69.21;101719.25;5048268;28;20045;-79
2021/05/30 07:21:18;;;;;;;20.52;12.95;;;16.80;72.20;;;14.85;68.86;101721.16;5048000;28;20080;-79
2021/05/30 07:23:56;;;;;;;18.70;12.35;;;16.80;72.50;;;14.87;68.10;101715.50;5048226;28;20053;-78
2021/05/30 07:26:40;;;;;;;18.38;10.68;;;16.80;71.90;;;14.88;67.63;101716.34;5048193;28;20075;-78
2021/05/30 07:29:17;;;;;;;19.85;11.50;;;16.80;71.50;;;14.91;67.90;101718.69;5046627;28;20132;-79
2021/05/30 07:31:52;;;;;;;17.42;10.23;;;16.80;71.50;;;14.96;67.17;101719.00;5047803;28;20041;-79
2021/05/30 07:34:30;;;;;;;16.75;10.45;;;16.80;70.50;;;14.96;66.75;101719.84;5046314;28;20075;-79
2021/05/30 07:37:08;;;;;;;14.70;9.80;;;16.80;70.50;;;15.01;66.82;101722.91;5047838;28;20041;-79
2021/05/30 07:39:44;;;;;;;16.45;9.45;;;16.90;70.60;;;15.01;66.93;101722.91;5047535;28;20410;-79
2021/05/30 07:42:21;;;;;;;13.32;8.93;;;16.90;70.40;;;15.06;66.26;101725.09;5047880;28;20051;-79
2021/05/30 07:44:56;;;;;;;14.52;9.23;;;16.90;69.70;;;15.13;66.89;101720.56;5047943;28;20402;-79
2021/05/30 07:47:28;;;;;;;16.65;9.13;;;16.90;70.60;;;15.25;66.95;101724.59;5048051;28;20469;-79
2021/05/30 07:50:07;;;;;;;16.65;8.68;;;17.00;70.80;;;15.23;65.32;101729.41;5047619;28;20048;-81
2021/05/30 07:52:42;;;;;;;14.07;8.50;;;17.00;68.90;;;15.22;63.98;101724.94;5047866;28;20513;-78
2021/05/30 07:55:18;;;;;;;15.00;7.65;;;17.00;67.80;;;15.29;64.35;101724.19;5047738;28;20046;-83
2021/05/30 07:57:57;;;;;;;14.77;8.55;;;17.10;68.50;;;15.28;64.58;101711.53;5047728;28;20049;-85
2021/05/30 08:00:29;;;;;;;14.18;9.02;;;17.00;68.50;;;15.37;65.06;101715.91;5046940;28;20554;-84
2021/05/30 08:03:04;;;;;;;17.52;8.18;;;17.10;69.00;;;15.46;65.39;101720.28;5047092;28;20053;-85
2021/05/30 08:05:39;;;;;;;14.57;8.38;;;17.20;69.70;;;15.45;63.71;101718.56;5047537;28;20041;-84
2021/05/30 08:08:18;;;;;;;16.70;8.25;;;17.20;68.30;;;15.51;64.21;101722.44;5046990;28;20535;-87
2021/05/30 08:11:02;;;;;;;11.18;6.95;;;17.20;68.70;;;15.51;63.94;101717.78;5047383;28;20053;-86
2021/05/30 08:13:41;;;;;;;12.02;6.93;;;17.30;67.60;;;15.46;61.35;101723.00;5045731;28;20045;-82
2021/05/30 08:16:24;;;;;;;10.57;6.30;;;17.20;64.70;;;15.51;62.14;101726.03;5046027;28;20045;-88
2021/05/30 08:19:03;;;;;;;12.00;7.05;;;17.20;66.40;;;15.64;63.09;101726.22;5047794;28;20047;-88
2021/05/30 08:21:55;;;;;;;10.88;6.80;;;17.30;67.30;;;15.65;62.53;101724.34;5047119;28;20489;-82
2021/05/30 08:27:44;;;;;;;10.98;6.22;;;17.30;64.20;;;15.60;62.18;101713.94;5050014;28;20045;-82
2021/05/30 08:30:28;;;;;;;11.32;6.07;;;17.30;66.50;;;15.70;62.17;101710.06;5066319;28;20053;-82
2021/05/30 08:33:04;;;;;;;8.32;5.47;;;17.40;67.00;;;15.77;62.02;101711.03;5051414;28;20045;-82
2021/05/30 08:35:42;;;;;;;9.82;5.72;;;17.50;66.30;;;15.77;60.45;101720.13;5051337;28;20130;-81
2021/05/30 08:38:17;;;;;;;8.63;5.43;;;17.50;64.80;;;15.76;57.39;101720.31;5051390;28;20045;-82
2021/05/30 08:40:57;;;;;;;9.43;5.57;;;17.50;61.90;;;15.78;58.51;101715.47;5050835;28;20045;-82
2021/05/30 08:43:33;;;;;;;8.32;4.80;;;17.40;62.40;;;15.87;58.27;101710.75;5051112;28;20048;-82
2021/05/30 08:46:09;;;;;;;9.40;5.15;;;17.50;62.50;;;15.83;57.15;101707.53;5051002;28;20081;-82
2021/05/30 08:48:47;;;;;;;6.07;3.90;;;17.50;61.50;;;15.81;55.88;101706.88;5051072;28;20567;-82
2021/05/30 08:51:25;;;;;;;7.65;4.45;;;17.50;60.50;;;15.82;56.63;101705.81;5050547;28;20501;-83
2021/05/30 08:54:04;;;;;;;8.95;4.53;;;17.50;60.60;;;15.86;55.88;101709.03;5066092;28;20045;-82
2021/05/30 08:56:42;;;;;;;7.50;4.13;;;17.50;61.00;;;15.96;58.42;101707.72;5050842;28;20508;-82
2021/05/30 08:59:37;;;;;;;8.32;4.28;;;17.60;61.60;;;16.13;58.45;101702.00;5050800;28;20045;-82
2021/05/30 09:02:22;;;;;;;9.07;4.00;;;17.70;62.50;;;16.11;57.43;101709.59;5049114;28;20246;-82
2021/05/30 09:05:05;;;;;;;7.22;4.32;;;17.80;62.00;;;16.19;57.51;101706.72;5050801;28;20045;-82
2021/05/30 09:07:52;;;;;;;6.38;4.10;;;17.80;62.20;;;16.27;60.17;101706.63;5050412;28;20524;-82
2021/05/30 09:10:30;;;;;;;6.68;3.70;;;17.90;63.30;;;16.32;58.04;101703.31;5050511;28;20045;-82
2021/05/30 09:13:17;;;;;;;9.02;4.45;;;17.90;61.80;;;16.17;55.57;101703.34;5050598;28;20056;-82
2021/05/30 09:15:55;;;;;;;7.07;4.22;;;17.90;59.80;;;16.23;58.58;101699.81;5050550;28;20056;-82
2021/05/30 09:18:34;;;;;;;8.70;4.15;;;17.90;60.70;;;16.31;55.94;101693.34;5050437;28;20128;-82
2021/05/30 09:21:12;;;;;;;8.70;4.28;;;17.90;61.10;;;16.44;57.87;101689.91;5050217;28;20041;-82
2021/05/30 09:23:50;;;;;;;7.80;4.45;;;18.00;62.00;;;16.38;55.21;101686.88;5050319;28;20523;-82
2021/05/30 09:26:27;;;;;;;7.50;4.45;;;18.00;58.50;;;16.33;55.54;101694.00;5048913;28;20080;-82
2021/05/30 09:29:13;;;;;;;6.82;4.55;;;18.00;58.50;;;16.42;57.83;101687.34;5050396;28;20045;-82
2021/05/30 09:32:03;;;;;;;7.03;4.40;;;18.10;61.60;;;16.51;57.01;101690.84;5050066;28;20049;-82
2021/05/30 09:34:41;;;;;;;8.55;5.03;;;18.20;61.30;;;16.57;55.48;101685.38;5050203;28;20052;-82
2021/05/30 09:37:15;;;;;;;6.60;4.00;;;18.20;59.90;;;16.60;55.25;101678.63;5048799;28;20068;-82
2021/05/30 09:39:51;;;;;;;6.75;4.38;;;18.30;59.30;;;16.66;58.88;101677.00;5047761;28;20055;-82
2021/05/30 09:42:36;;;;;;;6.78;4.47;;;18.30;62.80;;;16.50;55.31;101680.88;5050120;28;20048;-82
2021/05/30 09:45:13;;;;;;;6.18;4.05;;;18.30;58.50;;;16.44;53.98;101681.66;5050066;28;20052;-82
2021/05/30 09:47:53;;;;;;;6.47;3.85;;;18.20;57.50;;;16.44;53.57;101684.41;5048463;28;20056;-80
2021/05/30 09:50:38;;;;;;;7.88;4.20;;;18.20;57.20;;;16.47;53.76;101673.00;5049798;28;20525;-84
2021/05/30 09:53:17;;;;;;;7.30;4.07;;;18.20;57.10;;;16.56;55.23;101671.84;5032825;28;20041;-84
2021/05/30 09:55:55;;;;;;;8.80;3.92;;;18.20;59.70;;;16.68;52.73;101670.28;5082328;22;20044;-77
2021/05/30 09:58:33;;;;;;;6.88;4.10;;;18.30;57.40;;;16.67;52.55;101667.72;5069349;28;20045;-77
2021/05/30 10:01:09;;;;;;;7.65;4.38;;;18.30;56.80;;;16.77;53.93;101669.09;5069219;28;20048;-77
2021/05/30 10:03:47;;;;;;;7.35;3.85;;;18.40;58.20;;;16.78;55.13;101662.53;5068120;28;20036;-77
2021/05/30 10:06:31;;;;;;;6.15;3.90;;;18.40;58.80;;;16.85;53.47;101670.03;5069303;28;20109;-77
2021/05/30 10:09:10;;;;;;;8.52;3.78;;;18.50;57.40;;;16.78;51.93;101668.03;5069232;28;20064;-76
2021/05/30 10:11:49;;;;;;;8.25;3.45;;;18.50;56.80;;;16.68;52.31;101670.28;5069077;28;20045;-77
2021/05/30 10:14:25;;;;;;;5.30;3.33;;;18.40;55.70;;;16.75;50.78;101675.81;5069264;28;20074;-77
2021/05/30 10:17:00;;;;;;;6.07;3.58;;;18.40;55.00;;;16.69;48.77;101671.13;5069350;28;20565;-77
2021/05/30 10:19:41;;;;;;;8.52;3.75;;;18.40;52.90;;;16.71;50.11;101667.13;5068829;28;20401;-77
2021/05/30 10:22:23;;;;;;;7.53;3.70;;;18.40;54.80;;;16.76;51.65;101664.63;5069148;28;20044;-77
2021/05/30 10:25:02;;;;;;;5.85;3.40;;;18.40;55.20;;;16.86;52.68;101658.00;5068895;28;20044;-78
2021/05/30 10:27:38;;;;;;;7.18;3.60;;;18.50;56.00;;;16.89;51.23;101657.59;5069083;28;20117;-77
2021/05/30 10:30:24;;;;;;;6.28;3.25;;;18.60;55.00;;;16.91;49.77;101666.50;5068415;28;20091;-78
2021/05/30 10:33:22;;;;;;;5.50;3.03;;;18.60;54.10;;;16.89;47.55;101655.69;5068869;28;20044;-78
2021/05/30 10:36:13;;;;;;;5.72;3.00;;;18.60;52.30;;;16.91;47.33;101661.84;5068673;28;20049;-78
2021/05/30 10:38:55;;;;;;;;;;;18.60;52.20;;;16.92;48.35;101659.94;5069303;28;20040;-78
2021/05/30 10:41:30;;;;;;;;;;;18.60;52.80;;;16.92;48.10;101648.94;5068561;28;20411;-78
2021/05/30 10:44:08;;;;;;;6.55;2.95;;;18.60;52.00;;;16.93;46.80;101650.66;5068524;28;19947;-78
2021/05/30 10:46:58;;;;;;;5.15;2.75;;;18.60;51.50;;;16.94;47.75;101655.94;5068735;28;20048;-78
2021/05/30 10:49:56;;;;;;;5.82;3.10;;;18.60;52.30;;;16.85;47.33;101648.03;5067029;28;20428;-78